Detalii statie Girov TCE 3 BRAZI [000011A2]

Toti senzorii

Date Temperatura solului [C]Precipitatii [mm]Voltaj baterie [mV]Leaf Wetness [Min]HC Air temperature [C]HC Relative humidity [%]Punctul de roua [C]
medieminmaxsumaultimatimpmedieminmaxmediemediemin
2019-06-15 17:00:00 0 6864 0 31.09 29.38 32.46 100 31 29.3
2019-06-15 18:00:00 0 6826 0 29.44 28.7 30.3 100 29.4 28.7
2019-06-15 19:00:00 0 6748 0 27.33 26.2 28.68 100 27.2 26.2
2019-06-15 20:00:00 0 6698 0 25.54 24.95 26.08 100 25.4 24.9
2019-06-15 21:00:00 0 6610 0 23.64 22.21 24.91 100 23.6 22.2
2019-06-15 22:00:00 0 6572 0 20.6 19.85 21.95 100 20.5 19.8
2019-06-15 23:00:00 0 6552 0 19.86 19.47 20.39 100 19.8 19.4
2019-06-16 00:00:00 0 6552 0 20.47 20.35 20.66 100 20.4 20.3
2019-06-16 01:00:00 0 6542 0 20.06 19.33 20.49 100 20 19.3
2019-06-16 02:00:00 0 6542 0 19.36 18.93 19.67 100 19.3 18.9
2019-06-16 03:00:00 0 6532 0 18.86 18.5 19.11 100 18.8 18.5
2019-06-16 04:00:00 0 6522 0 18.7 18.16 18.99 100 18.6 18.1
2019-06-16 05:00:00 0 6502 0 18.47 18.07 18.71 100 18.4 18
2019-06-16 06:00:00 0 6502 0 18.07 17.82 18.25 100 18 17.8
2019-06-16 07:00:00 0 6562 0 19.97 18.68 21.87 100 19.9 18.6
2019-06-16 08:00:00 0 6620 0 24.22 22.01 26.3 100 24.1 22
2019-06-16 09:00:00 0 6826 0 28.28 26.9 29.37 100 28.2 26.9
2019-06-16 10:00:00 0 6982 0 29.58 28.49 31 100 29.5 28.4
2019-06-16 11:00:00 0 6982 0 29.08 27.83 30.25 100 29 27.8
2019-06-16 12:00:00 0 6972 0 30.01 29.16 31.21 100 29.9 29.1
2019-06-16 13:00:00 0 6982 0 30.23 29.54 31.11 100 30.2 29.5
2019-06-16 14:00:00 0 6982 0 30.42 29.76 31.77 100 30.3 29.7
2019-06-16 15:00:00 0 6914 0 31.06 29.59 32.29 100 31 29.5
2019-06-16 16:00:00 0 6874 0 31.35 30.78 32.08 100 31.3 30.7
2019-06-16 17:00:00 0 6894 0 31.46 30.35 32.96 100 31.4 30.3
2019-06-16 18:00:00 0 6816 0 30.48 29.3 31.75 100 30.4 29.3
2019-06-16 19:00:00 0 6756 0 28.8 28.17 29.42 100 28.7 28.1
2019-06-16 20:00:00 0 6668 0 26.91 25.41 28.12 100 26.8 25.4
2019-06-16 21:00:00 0 6590 0 24.44 23.64 25.35 100 24.4 23.6
2019-06-16 22:00:00 0 6572 0 22.07 20.59 23.44 100 22 20.5
2019-06-16 23:00:00 0 6552 0 19.73 19.07 20.5 100 19.6 19
2019-06-17 00:00:00 0 6542 0 18.68 18.44 18.91 100 18.6 18.4
2019-06-17 01:00:00 0 6532 0 18.4 18.01 18.79 100 18.3 18
2019-06-17 02:00:00 0 6532 0 17.93 17.68 18.26 100 17.8 17.6
2019-06-17 03:00:00 0 6522 0 18.77 17.93 19.31 100 18.7 17.9
2019-06-17 04:00:00 0 6522 0 18.58 18.18 19.4 100 18.5 18.1
2019-06-17 05:00:00 0 6502 0 18.28 17.78 18.59 100 18.2 17.7
2019-06-17 06:00:00 0 6502 0 18.28 17.71 18.83 100 18.2 17.7
2019-06-17 07:00:00 0 6552 0 19.64 18.38 20.52 100 19.5 18.3
2019-06-17 08:00:00 0 6660 0 23.43 20.95 25.16 100 23.4 20.9
2019-06-17 09:00:00 0 6826 0 27.41 25.24 29.38 100 27.3 25.2
2019-06-17 10:00:00 0 6992 0 25.9 25.41 26.56 100 25.8 25.4
2019-06-17 11:00:00 0 6992 0 27.1 26.12 27.56 100 27 26.1
2019-06-17 12:00:00 0 6982 0 28.76 28.13 30.94 100 28.7 28.1
2019-06-17 13:00:00 0 6982 0 29.97 28.85 31.18 100 29.9 28.8
2019-06-17 14:00:00 0 6982 0 31.46 30.37 33.11 100 31.4 30.3
2019-06-17 15:00:00 0 6914 0 31.56 30.21 33.88 100 31.5 30.2
2019-06-17 16:00:00 0 6904 0 30.78 30.03 31.68 100 30.7 30